Weather at Santa Bernardina International Airport

Public forecast

Using degrees Celsius for public forecast. Weather courtesy of forecast.io.

Current aviation weather report (METAR) for Santa Bernardina International Airport

2024/07/15 12:00 (retrieved 28 minutes ago)

SUDU 151200Z 11004KT 0150 FG VV/// 02/02 Q1033

Aviation forecast (TAF) for Santa Bernardina International Airport

2024/07/15 12:30 (retrieved 0 seconds ago)

TAF TAF SUDU 151130Z 1512/1612 12005KT 0500 FG OVC002 TX16/1518Z TN03/1611Z BECMG 1513/1515 03010KT 9999 SCT020 TEMPO 1604/1611 2000 BR BKN005